Time;durP1;ratioP1;P1;durP2;ratioP2;P2;SDS_P1;SDS_P2;PMS_P1;PMS_P2;Temp;Humidity;BMP_temperature;BMP_pressure;BME280_temperature;BME280_humidity;BME280_pressure;Samples;Min_cycle;Max_cycle;Signal;HPM_P1;HPM_P2
2023/12/26 00:01:45;;;;;;;0.50;0.20;;;10.70;99.90;;;;;;4970888;28;20038;-55
2023/12/26 00:04:12;;;;;;;0.30;0.30;;;10.70;99.90;;;;;;4973841;28;20037;-56
2023/12/26 00:06:40;;;;;;;0.90;0.38;;;10.70;99.90;;;;;;4974313;28;20042;-52
2023/12/26 00:09:05;;;;;;;0.30;0.30;;;10.70;99.90;;;;;;4974397;28;20133;-56
2023/12/26 00:11:31;;;;;;;0.40;0.30;;;10.70;99.90;;;;;;4974391;28;20106;-52
2023/12/26 00:13:56;;;;;;;0.20;0.20;;;10.70;99.90;;;;;;4973765;28;20109;-55
2023/12/26 00:16:23;;;;;;;0.10;0.10;;;10.70;99.90;;;;;;4970658;28;20026;-52
2023/12/26 00:18:49;;;;;;;0.40;0.40;;;10.60;99.90;;;;;;4974180;28;20027;-52
2023/12/26 00:21:15;;;;;;;0.20;0.20;;;10.70;99.90;;;;;;4974309;28;20038;-52
2023/12/26 00:23:40;;;;;;;0.15;0.15;;;10.70;99.90;;;;;;4974052;28;20117;-53
2023/12/26 00:26:06;;;;;;;0.38;0.35;;;10.70;99.90;;;;;;4974191;28;20563;-56
2023/12/26 00:28:31;;;;;;;0.20;0.20;;;10.70;99.90;;;;;;4972375;28;20136;-54
2023/12/26 00:30:57;;;;;;;1.02;0.30;;;10.70;99.90;;;;;;4971326;28;20030;-55
2023/12/26 00:33:23;;;;;;;0.32;0.30;;;10.70;99.90;;;;;;4973857;28;20031;-56
2023/12/26 00:35:48;;;;;;;0.30;0.30;;;10.70;99.90;;;;;;4973883;28;20118;-56
2023/12/26 00:38:14;;;;;;;0.52;0.30;;;10.70;99.90;;;;;;5018507;23;21937;-52
2023/12/26 00:40:41;;;;;;;0.20;0.20;;;10.70;99.90;;;;;;4954786;28;20074;-50
2023/12/26 00:43:07;;;;;;;0.38;0.28;;;10.70;99.90;;;;;;4954041;29;20114;-49
2023/12/26 00:45:33;;;;;;;0.30;0.30;;;10.70;99.90;;;;;;4954613;29;20096;-52
2023/12/26 00:47:59;;;;;;;0.30;0.30;;;10.70;99.90;;;;;;4954514;29;20031;-49
2023/12/26 00:50:24;;;;;;;0.95;0.38;;;10.70;99.90;;;;;;4954481;29;20477;-51
2023/12/26 00:52:50;;;;;;;0.20;0.20;;;10.70;99.90;;;;;;4947965;28;20541;-51
2023/12/26 00:55:16;;;;;;;0.45;0.38;;;10.70;99.90;;;;;;4953920;28;20164;-52
2023/12/26 00:57:41;;;;;;;1.58;0.20;;;10.70;99.90;;;;;;4953798;29;20027;-54
2023/12/26 01:00:08;;;;;;;0.30;0.30;;;10.70;99.90;;;;;;4954317;29;20055;-49
2023/12/26 01:02:34;;;;;;;1.65;0.30;;;10.70;99.90;;;;;;4954024;29;20031;-52
2023/12/26 01:04:59;;;;;;;1.10;0.35;;;10.70;99.90;;;;;;4954216;29;20023;-53
2023/12/26 01:07:25;;;;;;;0.82;0.30;;;10.70;99.90;;;;;;4952804;28;20110;-51
2023/12/26 01:09:51;;;;;;;0.30;0.30;;;10.70;99.90;;;;;;4949601;29;20040;-49
2023/12/26 01:12:17;;;;;;;0.20;0.20;;;10.60;99.90;;;;;;4953103;28;20031;-49
2023/12/26 01:14:43;;;;;;;1.75;0.30;;;10.60;99.90;;;;;;4953531;29;20481;-52
2023/12/26 01:17:09;;;;;;;0.30;0.30;;;10.50;99.90;;;;;;4953572;29;20054;-50
2023/12/26 01:19:35;;;;;;;0.63;0.28;;;10.50;99.90;;;;;;4945868;29;20102;-53
2023/12/26 01:22:00;;;;;;;0.40;0.40;;;10.50;99.90;;;;;;4949059;28;20040;-50
2023/12/26 01:24:26;;;;;;;0.55;0.20;;;10.50;99.90;;;;;;4945834;28;20027;-49
2023/12/26 01:26:51;;;;;;;1.27;0.50;;;10.50;99.90;;;;;;4934048;29;20047;-53
2023/12/26 01:29:17;;;;;;;3.90;0.55;;;10.50;99.90;;;;;;4949558;28;20093;-52
2023/12/26 01:31:43;;;;;;;0.45;0.40;;;10.40;99.90;;;;;;4950056;29;20102;-57
2023/12/26 01:34:08;;;;;;;0.35;0.35;;;10.40;99.90;;;;;;4943162;29;20118;-52
2023/12/26 01:36:34;;;;;;;1.83;0.30;;;10.50;99.90;;;;;;4950464;28;20090;-53
2023/12/26 01:39:00;;;;;;;0.32;0.32;;;10.40;99.90;;;;;;4950647;28;20043;-52
2023/12/26 01:41:26;;;;;;;0.30;0.30;;;10.40;99.90;;;;;;4940619;28;20459;-50
2023/12/26 01:43:51;;;;;;;0.20;0.20;;;10.40;99.90;;;;;;4952840;29;20047;-54
2023/12/26 01:46:19;;;;;;;0.30;0.30;;;10.30;99.90;;;;;;4947831;29;20066;-52
2023/12/26 01:48:47;;;;;;;2.30;0.57;;;10.30;99.90;;;;;;4954095;28;20035;-53
2023/12/26 01:51:15;;;;;;;0.85;0.30;;;10.30;99.90;;;;;;4952778;28;20035;-50
2023/12/26 01:53:41;;;;;;;2.63;1.08;;;10.40;99.90;;;;;;4954727;28;20413;-52
2023/12/26 01:56:14;;;;;;;0.30;0.30;;;10.40;99.90;;;;;;4952656;29;20091;-49
2023/12/26 01:58:41;;;;;;;0.30;0.30;;;10.40;99.90;;;;;;4950161;29;20031;-52
2023/12/26 02:01:08;;;;;;;0.55;0.47;;;10.40;99.90;;;;;;4952638;28;20058;-49
2023/12/26 02:03:34;;;;;;;2.25;0.40;;;10.40;99.90;;;;;;4951939;28;20119;-49
2023/12/26 02:06:00;;;;;;;5.07;0.50;;;10.30;99.90;;;;;;4954750;28;20563;-49
2023/12/26 02:08:27;;;;;;;1.65;0.43;;;10.40;99.90;;;;;;4953389;28;20030;-49
2023/12/26 02:10:53;;;;;;;0.35;0.35;;;10.40;99.90;;;;;;4952339;29;20130;-52
2023/12/26 02:13:19;;;;;;;3.85;0.50;;;10.40;99.90;;;;;;4950068;29;20664;-49
2023/12/26 02:15:48;;;;;;;0.22;0.22;;;10.30;99.90;;;;;;4952282;29;20122;-49
2023/12/26 02:18:13;;;;;;;0.85;0.35;;;10.30;99.90;;;;;;4949297;28;20027;-54
2023/12/26 02:20:39;;;;;;;0.30;0.30;;;10.30;99.90;;;;;;4955391;28;20033;-54
2023/12/26 02:23:05;;;;;;;0.70;0.50;;;10.30;99.90;;;;;;4952140;28;20035;-50
2023/12/26 02:25:30;;;;;;;0.70;0.28;;;10.30;99.90;;;;;;4952323;29;20046;-52
2023/12/26 02:27:58;;;;;;;1.65;0.63;;;10.30;99.90;;;;;;4950017;28;20062;-53
2023/12/26 02:30:24;;;;;;;0.65;0.40;;;10.20;99.90;;;;;;4953300;28;20388;-52
2023/12/26 02:32:51;;;;;;;1.45;0.35;;;10.20;99.90;;;;;;4951798;28;20508;-52
2023/12/26 02:35:18;;;;;;;0.80;0.30;;;10.20;99.90;;;;;;4953916;28;20489;-52
2023/12/26 02:37:46;;;;;;;0.50;0.50;;;10.30;99.90;;;;;;4952096;28;20050;-53
2023/12/26 02:40:12;;;;;;;0.85;0.30;;;10.20;99.90;;;;;;4970713;28;20034;-49
2023/12/26 02:42:37;;;;;;;0.50;0.20;;;10.20;99.90;;;;;;4965551;28;20342;-52
2023/12/26 02:45:04;;;;;;;0.40;0.40;;;10.20;99.90;;;;;;4961353;28;20385;-49
2023/12/26 02:47:29;;;;;;;0.50;0.30;;;10.20;99.90;;;;;;4968389;28;20034;-50
2023/12/26 02:49:55;;;;;;;1.20;0.40;;;10.10;99.90;;;;;;4944039;28;20027;-53
2023/12/26 02:52:20;;;;;;;0.43;0.40;;;10.00;99.90;;;;;;4971579;28;20031;-57
2023/12/26 02:54:46;;;;;;;0.82;0.50;;;10.00;99.90;;;;;;4971510;28;20147;-53
2023/12/26 02:57:12;;;;;;;0.70;0.28;;;9.90;99.90;;;;;;4966269;28;20077;-49
2023/12/26 02:59:37;;;;;;;1.20;0.47;;;9.90;99.90;;;;;;4962956;28;20551;-53
2023/12/26 03:02:03;;;;;;;0.22;0.22;;;9.90;99.90;;;;;;4967192;28;20848;-53
2023/12/26 03:04:28;;;;;;;2.58;0.50;;;9.90;99.90;;;;;;4964066;28;20106;-51
2023/12/26 03:06:54;;;;;;;0.32;0.20;;;9.80;99.90;;;;;;4969957;28;20038;-50
2023/12/26 03:09:20;;;;;;;0.20;0.20;;;9.80;99.90;;;;;;4962896;28;20031;-56
2023/12/26 03:11:45;;;;;;;3.05;0.30;;;9.80;99.90;;;;;;4969883;28;20046;-51
2023/12/26 03:14:12;;;;;;;2.20;0.30;;;9.70;99.90;;;;;;4962694;28;20106;-54
2023/12/26 03:16:38;;;;;;;0.30;0.30;;;9.70;99.90;;;;;;4963334;28;20074;-51
2023/12/26 03:19:03;;;;;;;2.83;0.43;;;9.70;99.90;;;;;;4961442;28;20123;-52
2023/12/26 03:21:29;;;;;;;0.50;0.38;;;9.70;99.90;;;;;;4971264;28;20015;-51
2023/12/26 03:23:55;;;;;;;2.92;0.30;;;9.70;99.90;;;;;;4971153;28;20026;-49
2023/12/26 03:26:21;;;;;;;1.23;0.43;;;9.70;99.90;;;;;;4969586;28;20461;-57
2023/12/26 03:28:46;;;;;;;0.30;0.30;;;9.70;99.90;;;;;;4963091;28;20026;-51
2023/12/26 03:31:12;;;;;;;0.30;0.30;;;9.70;99.90;;;;;;4974400;28;20026;-51
2023/12/26 03:33:37;;;;;;;0.20;0.20;;;9.70;99.90;;;;;;4974785;28;20393;-51
2023/12/26 03:36:04;;;;;;;1.30;0.38;;;9.70;99.90;;;;;;4974944;28;20026;-50
2023/12/26 03:38:30;;;;;;;5.07;0.73;;;9.70;99.90;;;;;;4969357;28;20035;-53
2023/12/26 03:40:57;;;;;;;3.10;0.50;;;9.70;99.90;;;;;;4955496;29;20042;-49
2023/12/26 03:43:23;;;;;;;0.50;0.32;;;9.60;99.90;;;;;;4953766;28;20038;-54
2023/12/26 03:45:50;;;;;;;1.52;0.45;;;9.60;99.90;;;;;;4958305;28;20035;-52
2023/12/26 03:48:15;;;;;;;0.85;0.20;;;9.60;99.90;;;;;;4952957;28;20031;-54
2023/12/26 03:50:41;;;;;;;0.30;0.25;;;9.60;99.90;;;;;;4936355;29;20044;-52
2023/12/26 03:53:06;;;;;;;0.85;0.20;;;9.60;99.90;;;;;;4936030;29;20073;-54
2023/12/26 03:55:33;;;;;;;0.68;0.30;;;9.60;99.90;;;;;;4936075;29;20394;-52
2023/12/26 03:57:59;;;;;;;0.40;0.35;;;9.60;99.90;;;;;;4936591;28;20039;-50
2023/12/26 04:00:24;;;;;;;0.57;0.40;;;9.50;99.90;;;;;;4933649;28;20055;-53
2023/12/26 04:02:50;;;;;;;1.20;0.32;;;9.50;99.90;;;;;;4958238;28;20050;-55
2023/12/26 04:05:16;;;;;;;0.22;0.22;;;9.50;99.90;;;;;;4951425;28;20494;-54
2023/12/26 04:07:41;;;;;;;0.20;0.20;;;9.50;99.90;;;;;;4951716;28;20159;-51
2023/12/26 04:10:08;;;;;;;1.88;0.30;;;9.50;99.90;;;;;;4954919;29;20027;-52
2023/12/26 04:12:34;;;;;;;0.90;0.40;;;9.50;99.90;;;;;;4955195;29;20102;-49
2023/12/26 04:15:00;;;;;;;0.47;0.22;;;9.50;99.90;;;;;;4953683;28;20150;-50
2023/12/26 04:17:26;;;;;;;1.95;0.63;;;9.50;99.90;;;;;;4946198;28;20519;-49
2023/12/26 04:19:51;;;;;;;3.33;0.30;;;9.50;99.90;;;;;;4953310;28;20083;-49
2023/12/26 04:22:17;;;;;;;0.45;0.45;;;9.50;99.90;;;;;;4946778;29;20027;-55
2023/12/26 04:24:43;;;;;;;0.65;0.20;;;9.50;99.90;;;;;;4954753;29;20086;-55
2023/12/26 04:27:09;;;;;;;0.20;0.20;;;9.50;99.90;;;;;;4954831;29;20020;-49
2023/12/26 04:29:34;;;;;;;0.28;0.20;;;9.50;99.90;;;;;;4955243;28;20031;-51
2023/12/26 04:32:00;;;;;;;0.38;0.08;;;9.50;99.90;;;;;;4954154;28;20015;-49
2023/12/26 04:34:25;;;;;;;0.32;0.20;;;9.50;99.90;;;;;;4949873;29;20023;-53
2023/12/26 04:36:51;;;;;;;1.20;0.20;;;9.50;99.90;;;;;;4938841;29;20092;-49
2023/12/26 04:39:17;;;;;;;0.20;0.20;;;9.50;99.90;;;;;;4965421;28;20031;-49
2023/12/26 04:41:46;;;;;;;0.52;0.20;;;9.60;99.90;;;;;;4973487;28;20019;-52
2023/12/26 04:44:11;;;;;;;1.70;0.20;;;9.60;99.90;;;;;;4973171;28;20049;-49
2023/12/26 04:46:37;;;;;;;0.25;0.05;;;9.60;99.90;;;;;;4971335;28;20031;-50
2023/12/26 04:49:03;;;;;;;0.85;0.17;;;9.60;99.90;;;;;;4967534;28;20041;-50
2023/12/26 04:51:30;;;;;;;0.43;0.25;;;9.60;99.90;;;;;;4954323;29;20042;-52
2023/12/26 04:53:56;;;;;;;0.20;0.20;;;9.60;99.90;;;;;;4953939;29;20039;-50
2023/12/26 04:56:22;;;;;;;1.05;0.30;;;9.60;99.90;;;;;;4954220;29;20042;-49
2023/12/26 04:58:49;;;;;;;0.50;0.40;;;9.60;99.90;;;;;;4971498;28;20030;-52
2023/12/26 05:01:16;;;;;;;0.20;0.20;;;9.50;99.90;;;;;;4968323;28;20026;-52
2023/12/26 05:03:42;;;;;;;0.32;0.32;;;9.60;99.90;;;;;;4968287;28;20545;-50
2023/12/26 05:06:08;;;;;;;0.77;0.30;;;9.50;99.90;;;;;;4938140;29;20079;-50
2023/12/26 05:08:36;;;;;;;0.43;0.22;;;9.60;99.90;;;;;;4970780;28;20035;-48
2023/12/26 05:11:02;;;;;;;0.40;0.30;;;9.60;99.90;;;;;;4973284;28;20081;-49
2023/12/26 05:13:28;;;;;;;3.97;0.40;;;9.60;99.90;;;;;;4971432;28;20567;-49
2023/12/26 05:15:55;;;;;;;0.65;0.40;;;9.60;99.90;;;;;;4974064;28;20053;-52
2023/12/26 05:18:20;;;;;;;0.70;0.60;;;9.70;99.90;;;;;;4959976;28;20158;-49
2023/12/26 05:20:46;;;;;;;0.40;0.40;;;9.70;99.90;;;;;;4967217;28;20500;-52
2023/12/26 05:23:12;;;;;;;1.92;0.50;;;9.70;99.90;;;;;;4967587;28;20019;-53
2023/12/26 05:25:38;;;;;;;1.17;0.40;;;9.70;99.90;;;;;;4959119;28;20390;-54
2023/12/26 05:28:04;;;;;;;4.95;0.50;;;9.70;99.90;;;;;;4970218;28;20037;-49
2023/12/26 05:30:29;;;;;;;1.95;0.40;;;9.60;99.90;;;;;;4970506;28;20023;-49
2023/12/26 05:32:55;;;;;;;1.85;0.30;;;9.60;99.90;;;;;;4971193;28;20038;-49
2023/12/26 05:35:21;;;;;;;3.22;0.47;;;9.60;99.90;;;;;;4964849;28;20290;-51
2023/12/26 05:37:47;;;;;;;1.63;0.40;;;9.50;99.90;;;;;;4964088;28;20019;-55
2023/12/26 05:40:12;;;;;;;0.50;0.50;;;9.50;99.90;;;;;;4971840;28;20039;-53
2023/12/26 05:42:38;;;;;;;0.88;0.38;;;9.60;99.90;;;;;;4972776;28;20371;-50
2023/12/26 05:45:04;;;;;;;0.28;0.25;;;9.60;99.90;;;;;;4976774;28;20025;-49
2023/12/26 05:47:30;;;;;;;0.80;0.40;;;9.60;99.90;;;;;;4967736;28;20031;-49
2023/12/26 05:49:58;;;;;;;1.02;0.38;;;9.60;99.90;;;;;;4966853;28;20022;-53
2023/12/26 05:52:25;;;;;;;1.27;0.50;;;9.60;99.90;;;;;;4971615;28;20399;-49
2023/12/26 05:54:50;;;;;;;0.80;0.47;;;9.60;99.90;;;;;;4972443;28;20031;-49
2023/12/26 05:57:16;;;;;;;0.38;0.25;;;9.60;99.90;;;;;;4954933;28;20023;-49
2023/12/26 05:59:42;;;;;;;0.40;0.20;;;9.70;99.90;;;;;;4972559;28;20511;-52
2023/12/26 06:02:07;;;;;;;2.60;0.52;;;9.60;99.90;;;;;;4968556;28;20430;-49
2023/12/26 06:04:33;;;;;;;1.25;0.50;;;9.60;99.90;;;;;;4961862;28;20027;-51
2023/12/26 06:06:58;;;;;;;1.67;1.05;;;9.70;99.90;;;;;;4967507;28;20065;-50
2023/12/26 06:09:26;;;;;;;7.78;2.33;;;9.70;99.90;;;;;;4971994;28;20034;-54
2023/12/26 06:11:52;;;;;;;7.80;3.67;;;9.70;99.90;;;;;;4972125;28;20097;-54
2023/12/26 06:14:17;;;;;;;6.75;2.92;;;9.70;99.90;;;;;;4971492;28;20026;-50
2023/12/26 06:16:43;;;;;;;5.55;1.55;;;9.70;99.90;;;;;;4969419;28;20023;-50
2023/12/26 06:19:09;;;;;;;12.27;2.25;;;9.70;99.90;;;;;;4963397;28;20418;-52
2023/12/26 06:21:36;;;;;;;6.63;2.53;;;9.70;99.90;;;;;;4958494;28;20762;-53
2023/12/26 06:24:02;;;;;;;7.25;2.13;;;9.70;99.90;;;;;;4935884;28;20183;-49
2023/12/26 06:26:27;;;;;;;5.40;2.00;;;9.70;99.90;;;;;;4963954;28;20097;-51
2023/12/26 06:28:53;;;;;;;6.03;2.00;;;9.70;99.90;;;;;;4962195;28;20045;-55
2023/12/26 06:31:18;;;;;;;7.45;3.25;;;9.70;99.90;;;;;;4959075;28;20689;-50
2023/12/26 06:33:44;;;;;;;8.10;3.40;;;9.70;99.90;;;;;;4971326;28;20035;-52
2023/12/26 06:36:10;;;;;;;5.03;2.05;;;9.60;99.90;;;;;;4971736;28;20160;-54
2023/12/26 06:41:04;;;;;;;4.90;2.17;;;9.50;99.90;;;;;;5006790;28;20381;-55
2023/12/26 06:43:30;;;;;;;7.93;1.95;;;9.50;99.90;;;;;;5008066;28;20018;-51
2023/12/26 06:45:57;;;;;;;4.95;1.50;;;9.50;99.90;;;;;;5005309;28;20036;-54
2023/12/26 06:48:22;;;;;;;6.15;1.75;;;9.40;99.90;;;;;;4999758;28;20088;-52
2023/12/26 06:50:48;;;;;;;4.28;1.35;;;9.40;99.90;;;;;;4979250;28;20026;-53
2023/12/26 06:53:14;;;;;;;4.40;1.42;;;9.40;99.90;;;;;;4981727;28;20066;-59
2023/12/26 06:55:40;;;;;;;2.92;1.00;;;9.40;99.90;;;;;;4981343;28;20064;-51
2023/12/26 06:58:05;;;;;;;2.15;1.00;;;9.40;99.90;;;;;;4988477;28;20089;-51
2023/12/26 07:00:31;;;;;;;4.47;1.40;;;9.50;99.90;;;;;;4990254;28;20042;-51
2023/12/26 07:02:57;;;;;;;5.22;1.33;;;9.50;99.90;;;;;;4990556;28;20419;-54
2023/12/26 07:05:22;;;;;;;3.17;1.50;;;9.50;99.90;;;;;;4994696;28;20109;-58
2023/12/26 07:07:48;;;;;;;3.38;1.25;;;9.50;99.90;;;;;;4995068;28;20066;-52
2023/12/26 07:10:14;;;;;;;2.92;0.88;;;9.50;99.90;;;;;;4994736;28;20513;-52
2023/12/26 07:12:40;;;;;;;3.38;1.40;;;9.40;99.90;;;;;;4991568;28;20045;-54
2023/12/26 07:15:06;;;;;;;2.92;1.15;;;9.40;99.90;;;;;;4993821;28;20030;-57
2023/12/26 07:17:33;;;;;;;4.78;1.10;;;9.40;99.90;;;;;;4994408;28;20050;-60
2023/12/26 07:19:58;;;;;;;6.07;1.30;;;9.40;99.90;;;;;;4993524;28;20030;-52
2023/12/26 07:22:24;;;;;;;17.08;4.93;;;9.30;99.90;;;;;;4994619;28;20050;-53
2023/12/26 07:24:50;;;;;;;3.92;2.05;;;9.40;99.90;;;;;;4994783;28;20022;-54
2023/12/26 07:27:15;;;;;;;8.00;2.78;;;9.40;99.90;;;;;;4993851;28;20436;-51
2023/12/26 07:29:41;;;;;;;8.85;2.70;;;9.40;99.90;;;;;;4992403;28;20031;-52
2023/12/26 07:32:06;;;;;;;4.35;1.60;;;9.50;99.90;;;;;;4994355;28;20022;-55
2023/12/26 07:34:32;;;;;;;3.28;1.25;;;9.50;99.90;;;;;;4994340;28;20018;-55
2023/12/26 07:36:58;;;;;;;7.68;2.40;;;9.40;99.90;;;;;;4994353;28;20041;-56
2023/12/26 07:39:23;;;;;;;8.48;2.83;;;9.50;99.90;;;;;;4994085;28;20044;-55
2023/12/26 07:41:49;;;;;;;11.65;2.90;;;9.40;99.90;;;;;;4991620;28;20038;-57
2023/12/26 07:44:15;;;;;;;10.32;3.05;;;9.50;99.90;;;;;;4993883;28;20053;-53
2023/12/26 07:46:41;;;;;;;9.43;3.50;;;9.50;99.90;;;;;;4993868;28;20062;-56
2023/12/26 07:49:06;;;;;;;7.78;2.90;;;9.50;99.90;;;;;;4993931;28;20038;-53
2023/12/26 07:51:32;;;;;;;14.77;3.40;;;9.40;99.90;;;;;;4994207;28;20033;-54
2023/12/26 07:53:59;;;;;;;11.57;3.60;;;9.40;99.90;;;;;;4992959;28;20030;-53
2023/12/26 07:56:26;;;;;;;9.68;2.10;;;9.50;99.90;;;;;;4993187;28;20395;-58
2023/12/26 07:58:52;;;;;;;6.07;1.85;;;9.50;99.90;;;;;;4994250;28;20046;-53
2023/12/26 08:01:18;;;;;;;14.55;4.13;;;9.50;99.90;;;;;;4993432;28;20045;-57
2023/12/26 08:03:44;;;;;;;11.23;3.53;;;9.40;99.90;;;;;;4993743;28;20105;-52
2023/12/26 08:06:10;;;;;;;11.50;4.70;;;9.40;99.90;;;;;;4994063;28;20484;-56
2023/12/26 08:08:36;;;;;;;12.02;3.42;;;9.50;99.90;;;;;;4992003;28;20038;-54
2023/12/26 08:11:02;;;;;;;17.98;5.93;;;9.40;99.90;;;;;;4993124;28;20030;-54
2023/12/26 08:13:27;;;;;;;21.58;4.45;;;9.50;99.90;;;;;;4993598;28;20080;-56
2023/12/26 08:15:53;;;;;;;11.82;3.22;;;9.50;99.90;;;;;;4993021;28;20030;-55
2023/12/26 08:18:19;;;;;;;7.38;2.78;;;9.50;99.90;;;;;;4989365;28;20034;-51
2023/12/26 08:20:44;;;;;;;8.52;1.75;;;9.60;99.90;;;;;;4993689;28;20026;-58
2023/12/26 08:23:10;;;;;;;4.72;2.08;;;9.60;99.90;;;;;;4992268;28;20033;-58
2023/12/26 08:25:37;;;;;;;7.50;2.28;;;9.60;99.90;;;;;;4992744;28;20031;-51
2023/12/26 08:28:04;;;;;;;13.10;2.55;;;9.60;99.90;;;;;;4993620;28;20540;-54
2023/12/26 08:30:29;;;;;;;5.32;1.48;;;9.60;99.90;;;;;;4992238;28;20030;-55
2023/12/26 08:32:55;;;;;;;7.25;1.52;;;9.60;99.90;;;;;;4993336;28;20042;-53
2023/12/26 08:35:20;;;;;;;8.38;1.88;;;9.60;99.90;;;;;;4993418;28;20026;-56
2023/12/26 08:37:46;;;;;;;3.45;1.40;;;9.60;99.90;;;;;;4993513;28;20531;-51
2023/12/26 08:40:12;;;;;;;9.70;1.83;;;9.70;99.90;;;;;;4991723;28;20476;-53
2023/12/26 08:42:37;;;;;;;5.70;1.13;;;9.70;99.90;;;;;;4993111;28;20389;-54
2023/12/26 08:45:03;;;;;;;5.82;1.67;;;9.70;99.90;;;;;;4988829;28;20027;-57
2023/12/26 08:47:29;;;;;;;5.38;2.30;;;9.80;99.90;;;;;;4993266;28;20031;-59
2023/12/26 08:49:56;;;;;;;4.22;1.30;;;9.80;99.90;;;;;;4993167;28;20511;-54
2023/12/26 08:52:23;;;;;;;5.68;1.63;;;9.80;99.90;;;;;;4992939;28;20034;-52
2023/12/26 08:54:49;;;;;;;6.20;1.85;;;9.90;99.90;;;;;;4990311;28;20030;-53
2023/12/26 08:57:14;;;;;;;5.00;1.65;;;9.90;99.90;;;;;;4992922;28;20030;-56
2023/12/26 08:59:40;;;;;;;10.60;2.00;;;10.00;99.90;;;;;;4992714;28;20053;-57
2023/12/26 09:02:06;;;;;;;7.35;1.83;;;10.00;99.90;;;;;;4975374;28;20346;-56
2023/12/26 09:04:31;;;;;;;5.10;1.65;;;10.00;99.90;;;;;;4992949;28;20022;-51
2023/12/26 09:06:57;;;;;;;6.78;2.60;;;10.00;99.90;;;;;;4987225;28;20035;-54
2023/12/26 09:09:26;;;;;;;6.72;1.90;;;10.00;99.90;;;;;;4991789;28;20027;-55
2023/12/26 09:11:53;;;;;;;6.50;1.33;;;10.10;99.90;;;;;;4992989;28;20022;-54
2023/12/26 09:14:19;;;;;;;8.25;1.63;;;10.00;99.90;;;;;;4992590;28;20100;-55
2023/12/26 09:16:44;;;;;;;9.20;1.70;;;10.10;99.90;;;;;;4992760;28;20436;-60
2023/12/26 09:19:11;;;;;;;7.60;2.00;;;10.10;99.90;;;;;;4992659;28;20026;-52
2023/12/26 09:21:37;;;;;;;6.40;1.52;;;10.10;99.90;;;;;;4990772;28;20022;-58
2023/12/26 09:24:03;;;;;;;6.50;1.60;;;10.10;99.90;;;;;;4992212;28;20530;-55
2023/12/26 09:26:29;;;;;;;4.75;2.00;;;10.10;99.90;;;;;;4991729;28;20492;-53
2023/12/26 09:28:55;;;;;;;5.05;1.70;;;10.10;99.90;;;;;;4988862;28;20033;-57
2023/12/26 09:31:21;;;;;;;5.75;1.60;;;10.00;99.90;;;;;;4992462;28;20429;-57
2023/12/26 09:33:47;;;;;;;7.72;1.73;;;10.00;99.90;;;;;;4987975;28;20022;-55
2023/12/26 09:36:12;;;;;;;5.95;1.30;;;9.90;99.90;;;;;;4991570;28;20033;-51
2023/12/26 09:38:40;;;;;;;13.75;3.13;;;9.90;99.90;;;;;;4987696;28;20069;-51
2023/12/26 09:41:05;;;;;;;7.97;1.85;;;9.90;99.90;;;;;;4983395;28;20424;-57
2023/12/26 09:43:31;;;;;;;12.85;3.75;;;9.90;99.90;;;;;;4986921;28;20081;-55
2023/12/26 09:45:57;;;;;;;7.22;1.92;;;9.80;99.90;;;;;;4989112;28;20452;-51
2023/12/26 09:48:24;;;;;;;9.20;2.42;;;9.70;99.90;;;;;;4982995;28;20026;-51
2023/12/26 09:50:53;;;;;;;9.05;2.95;;;9.70;99.90;;;;;;4983977;28;20018;-51
2023/12/26 09:53:25;;;;;;;10.23;3.70;;;9.80;99.90;;;;;;4979226;28;20408;-54
2023/12/26 09:55:51;;;;;;;9.88;2.15;;;9.90;99.90;;;;;;4983769;28;20034;-55
2023/12/26 09:58:19;;;;;;;7.75;2.38;;;10.10;99.90;;;;;;4980928;28;20045;-51
2023/12/26 10:00:48;;;;;;;8.50;1.60;;;10.30;99.90;;;;;;4979649;28;20033;-53
2023/12/26 10:03:14;;;;;;;10.20;2.58;;;10.60;99.90;;;;;;4982123;28;20149;-53
2023/12/26 10:05:39;;;;;;;10.52;2.22;;;10.80;99.90;;;;;;4984061;28;20110;-54
2023/12/26 10:08:05;;;;;;;9.80;2.50;;;11.00;99.90;;;;;;4989741;28;20041;-57
2023/12/26 10:10:32;;;;;;;12.30;2.83;;;11.10;99.90;;;;;;4985000;28;20730;-57
2023/12/26 10:12:58;;;;;;;10.05;3.78;;;11.10;99.90;;;;;;4980966;28;20035;-53
2023/12/26 10:15:23;;;;;;;11.02;3.33;;;11.10;99.90;;;;;;4982545;28;20033;-57
2023/12/26 10:17:51;;;;;;;14.70;3.28;;;11.10;99.90;;;;;;4981455;28;20027;-53
2023/12/26 10:20:17;;;;;;;8.40;1.67;;;11.20;99.90;;;;;;4989730;28;20018;-51
2023/12/26 10:22:43;;;;;;;14.73;2.45;;;11.10;99.90;;;;;;4984296;28;20026;-55
2023/12/26 10:25:11;;;;;;;13.23;2.90;;;11.00;99.90;;;;;;4981446;28;20491;-54
2023/12/26 10:27:37;;;;;;;10.55;3.20;;;11.00;99.90;;;;;;4980655;28;20023;-58
2023/12/26 10:30:04;;;;;;;9.82;3.13;;;11.10;99.90;;;;;;4980688;28;20053;-54
2023/12/26 10:32:30;;;;;;;8.85;2.88;;;11.20;99.90;;;;;;4982144;28;20036;-58
2023/12/26 10:34:56;;;;;;;11.98;2.75;;;11.20;99.90;;;;;;4987474;28;20523;-57
2023/12/26 10:37:22;;;;;;;5.07;1.75;;;11.40;99.90;;;;;;4988314;28;20022;-61
2023/12/26 10:39:48;;;;;;;6.63;1.88;;;11.50;99.90;;;;;;4986644;28;20113;-55
2023/12/26 10:42:18;;;;;;;9.85;1.40;;;11.50;99.90;;;;;;4991168;28;20134;-51
2023/12/26 10:45:00;;;;;;;7.22;1.73;;;11.60;99.90;;;;;;4991374;28;20050;-57
2023/12/26 10:47:28;;;;;;;8.10;1.52;;;11.60;99.90;;;;;;4986314;28;20393;-54
2023/12/26 10:49:57;;;;;;;7.75;2.92;;;11.50;99.90;;;;;;4991040;28;20102;-54
2023/12/26 10:52:26;;;;;;;9.75;3.38;;;11.30;99.90;;;;;;4990262;28;20026;-52
2023/12/26 10:54:54;;;;;;;6.60;1.58;;;11.20;99.90;;;;;;4991157;28;20073;-51
2023/12/26 10:57:21;;;;;;;6.90;1.50;;;11.10;99.90;;;;;;4987548;28;20034;-52
2023/12/26 13:51:31;;;;;;;9.95;1.40;;;9.40;99.90;;;;;;5004065;28;20044;-48
2023/12/26 13:53:56;;;;;;;21.23;2.15;;;9.30;99.90;;;;;;5008053;28;20134;-51
2023/12/26 13:56:22;;;;;;;15.18;1.67;;;9.30;99.90;;;;;;5004335;28;20041;-49
2023/12/26 13:58:48;;;;;;;8.35;1.48;;;9.30;99.90;;;;;;5001916;28;20429;-49
2023/12/26 14:01:20;;;;;;;9.80;1.50;;;9.20;99.90;;;;;;5006113;28;20476;-50
2023/12/26 14:03:50;;;;;;;5.53;1.60;;;9.10;99.90;;;;;;5006593;28;20058;-50
2023/12/26 14:06:22;;;;;;;20.48;1.92;;;9.10;99.90;;;;;;5001759;28;20025;-54
2023/12/26 14:08:49;;;;;;;10.30;1.38;;;9.10;99.90;;;;;;5007279;28;20030;-50
2023/12/26 14:11:16;;;;;;;7.75;1.70;;;9.00;99.90;;;;;;5011241;28;20116;-50
2023/12/26 14:13:42;;;;;;;7.22;1.38;;;9.10;99.90;;;;;;5010405;28;20029;-51
2023/12/26 14:16:07;;;;;;;7.00;1.13;;;9.10;99.90;;;;;;5011043;28;20032;-51
2023/12/26 14:18:33;;;;;;;8.48;1.77;;;9.10;99.90;;;;;;5007968;28;20029;-50
2023/12/26 14:21:00;;;;;;;10.35;2.50;;;9.10;99.90;;;;;;5003588;28;20072;-49
2023/12/26 14:23:26;;;;;;;10.00;2.10;;;9.10;99.90;;;;;;5010838;28;20022;-50
2023/12/26 14:25:51;;;;;;;6.72;1.50;;;9.10;99.90;;;;;;5010998;28;20542;-50
2023/12/26 14:28:17;;;;;;;11.05;1.73;;;9.10;99.90;;;;;;5011191;28;20029;-50
2023/12/26 14:30:43;;;;;;;13.80;2.28;;;9.00;99.90;;;;;;5010754;28;20104;-50
2023/12/26 14:33:08;;;;;;;15.63;1.60;;;8.90;99.90;;;;;;5009986;28;20022;-50
2023/12/26 14:35:34;;;;;;;3.20;1.65;;;8.80;99.90;;;;;;5002161;28;20176;-49
2023/12/26 14:37:59;;;;;;;12.93;2.35;;;8.70;99.90;;;;;;5010816;28;20026;-48
2023/12/26 14:40:25;;;;;;;15.02;2.75;;;8.70;99.90;;;;;;5010670;28;20029;-50
2023/12/26 14:42:51;;;;;;;16.77;2.78;;;8.60;99.90;;;;;;5007029;28;20022;-53
2023/12/26 14:45:17;;;;;;;8.82;2.63;;;8.50;99.90;;;;;;5010216;28;20037;-50
2023/12/26 14:47:42;;;;;;;12.00;3.42;;;8.50;99.90;;;;;;5009920;28;20022;-51
2023/12/26 14:50:08;;;;;;;16.67;4.05;;;8.50;99.90;;;;;;5008609;28;20026;-51
2023/12/26 14:52:33;;;;;;;8.30;3.05;;;8.60;99.90;;;;;;5010433;28;20060;-49
2023/12/26 14:54:59;;;;;;;16.38;2.83;;;8.50;99.90;;;;;;5010653;28;20069;-50
2023/12/26 14:57:24;;;;;;;9.45;2.03;;;8.60;99.90;;;;;;5010664;28;20037;-50
2023/12/26 14:59:50;;;;;;;8.13;1.25;;;8.60;99.90;;;;;;5010403;28;20515;-49
2023/12/26 15:02:15;;;;;;;5.95;1.00;;;8.60;99.90;;;;;;5008726;28;20049;-49
2023/12/26 15:04:41;;;;;;;12.30;1.80;;;8.60;99.90;;;;;;4996796;28;20026;-52
2023/12/26 15:07:08;;;;;;;7.90;1.88;;;8.60;99.90;;;;;;5010559;28;20117;-51
2023/12/26 15:09:33;;;;;;;10.73;2.20;;;8.60;99.90;;;;;;5010271;28;20030;-50
2023/12/26 15:11:59;;;;;;;9.88;1.63;;;8.60;99.90;;;;;;5009650;28;20037;-50
2023/12/26 15:14:24;;;;;;;6.25;1.45;;;8.60;99.90;;;;;;5009085;28;20603;-51
2023/12/26 15:16:50;;;;;;;6.45;1.67;;;8.60;99.90;;;;;;5009636;28;20049;-50
2023/12/26 15:19:16;;;;;;;14.70;2.22;;;8.50;99.90;;;;;;5010354;28;20532;-51
2023/12/26 15:21:43;;;;;;;13.27;2.03;;;8.40;99.90;;;;;;4992849;28;20018;-49
2023/12/26 15:24:13;;;;;;;10.10;1.40;;;8.40;99.90;;;;;;5009273;28;20030;-49
2023/12/26 15:26:38;;;;;;;10.15;1.65;;;8.30;99.90;;;;;;5012356;28;20029;-50
2023/12/26 15:29:04;;;;;;;10.45;1.70;;;8.40;99.90;;;;;;5013823;28;20053;-51
2023/12/26 15:31:30;;;;;;;11.30;2.08;;;8.40;99.90;;;;;;5014258;28;20038;-48
2023/12/26 15:33:56;;;;;;;9.55;1.10;;;8.40;99.90;;;;;;5013843;28;20037;-49
2023/12/26 15:36:24;;;;;;;14.30;1.65;;;8.30;99.90;;;;;;5012712;28;20026;-51
2023/12/26 15:38:50;;;;;;;9.35;1.70;;;8.30;99.90;;;;;;5012632;28;20057;-51
2023/12/26 15:41:23;;;;;;;9.02;2.08;;;8.30;99.90;;;;;;5008071;28;20447;-49